Rhapsody — IBQF — position and weather

sailwx.info

Track history (hours):
 
Tides and Currents Weather Stations Pressure Air Temp Water Temp Dewpoint Dewpoint Depression Visibility Wind Speed Wind Dir Waves Ship Positions

Rhapsody

Operator: Mediterranean Shipping Company

Last reported at 2017-Jul-14 18:30 UTC. Time now 2017-Jul-22 12:37 UTC.
Position N 06°07' E 001°20'.

Length 180 m; draft 11.3 m.

Type: Ship. MMSI: 247283200.

Date/timePositionNaut miles runAvg speedWind from/ knotsBaromVisibWave heightAir tempDewpointWater temp
2017-Jul-14 18:30N 06°07' E 001°20'10 2.8
2017-Jul-14 14:54N 05°57' E 001°23'913.0
2017-Jul-14 14:10N 05°49' E 001°18'514.8
2017-Jul-14 13:51N 05°46' E 001°15'6214.6
2017-Jul-14 09:35N 05°04' E 000°28'114.2
2017-Jul-14 09:29N 05°04' E 000°27'  
2017-Jul-08 07:20N 22°10' W 017°40'614.5
2017-Jul-08 06:54N 22°16' W 017°38'614.4
2017-Jul-08 06:29N 22°22' W 017°37'714.4
2017-Jul-08 05:59N 22°29' W 017°35'714.4
2017-Jul-08 05:30N 22°36' W 017°34'814.3
2017-Jul-08 04:59N 22°43' W 017°32'814.8
2017-Jul-08 04:29N 22°50' W 017°31'714.9
2017-Jul-08 04:00N 22°57' W 017°29'714.7
2017-Jul-08 03:30N 23°05' W 017°28'714.5
2017-Jul-08 02:59N 23°12' W 017°26'714.1
2017-Jul-08 02:29N 23°19' W 017°25'713.9
2017-Jul-08 02:00N 23°25' W 017°23'1114.5
2017-Jul-08 01:13N 23°36' W 017°21'414.4
2017-Jul-08 00:59N 23°40' W 017°20'714.4
2017-Jul-08 00:30N 23°47' W 017°18'1014.4
2017-Jul-07 23:48N 23°56' W 017°16'414.2
2017-Jul-07 23:30N 24°01' W 017°15'714.2
2017-Jul-07 22:59N 24°07' W 017°11'714.0
2017-Jul-07 22:30N 24°13' W 017°08'23214.3
2017-Jul-07 06:20N 27°42' W 015°16'514.9
2017-Jul-07 06:00N 27°47' W 015°15'714.5
2017-Jul-07 05:31N 27°54' W 015°15'713.9
2017-Jul-07 05:01N 28°01' W 015°16'612.7
2017-Jul-07 04:30N 28°06' W 015°20'1 2.5
2017-Jul-07 04:00N 28°06' W 015°22'0 0.9
2017-Jul-07 03:30N 28°07' W 015°21'1 1.8
2017-Jul-07 03:00N 28°08' W 015°21'4 7.8
2017-Jul-07 02:30N 28°12' W 015°20'713.8
2017-Jul-07 02:00N 28°18' W 015°18'714.3
2017-Jul-07 01:30N 28°25' W 015°16'714.7
2017-Jul-07 01:00N 28°32' W 015°14'714.6
2017-Jul-07 00:30N 28°39' W 015°12'814.7
2017-Jul-06 23:59N 28°47' W 015°10'  
Track history (hours):
 
Tides and Currents Weather Stations Pressure Air Temp Water Temp Dewpoint Dewpoint Depression Visibility Wind Speed Wind Dir Waves Ship Positions

Rhapsody

Operator: Mediterranean Shipping Company

Last reported at 2017-Jul-14 18:30 UTC. Time now 2017-Jul-22 12:37 UTC.
Position N 06°07' E 001°20'.

Length 180 m; draft 11.3 m.

Type: Ship. MMSI: 247283200.

Date/timePositionNaut miles runAvg speedWind from/ knotsBaromVisibWave heightAir tempDewpointWater temp
2017-Jul-14 18:30N 06°07' E 001°20'10 2.8
2017-Jul-14 14:54N 05°57' E 001°23'913.0
2017-Jul-14 14:10N 05°49' E 001°18'514.8
2017-Jul-14 13:51N 05°46' E 001°15'6214.6
2017-Jul-14 09:35N 05°04' E 000°28'114.2
2017-Jul-14 09:29N 05°04' E 000°27'  
2017-Jul-08 07:20N 22°10' W 017°40'614.5
2017-Jul-08 06:54N 22°16' W 017°38'614.4
2017-Jul-08 06:29N 22°22' W 017°37'714.4
2017-Jul-08 05:59N 22°29' W 017°35'714.4
2017-Jul-08 05:30N 22°36' W 017°34'814.3
2017-Jul-08 04:59N 22°43' W 017°32'814.8
2017-Jul-08 04:29N 22°50' W 017°31'714.9
2017-Jul-08 04:00N 22°57' W 017°29'714.7
2017-Jul-08 03:30N 23°05' W 017°28'714.5
2017-Jul-08 02:59N 23°12' W 017°26'714.1
2017-Jul-08 02:29N 23°19' W 017°25'713.9
2017-Jul-08 02:00N 23°25' W 017°23'1114.5
2017-Jul-08 01:13N 23°36' W 017°21'414.4
2017-Jul-08 00:59N 23°40' W 017°20'714.4
2017-Jul-08 00:30N 23°47' W 017°18'1014.4
2017-Jul-07 23:48N 23°56' W 017°16'414.2
2017-Jul-07 23:30N 24°01' W 017°15'714.2
2017-Jul-07 22:59N 24°07' W 017°11'714.0
2017-Jul-07 22:30N 24°13' W 017°08'23214.3
2017-Jul-07 06:20N 27°42' W 015°16'514.9
2017-Jul-07 06:00N 27°47' W 015°15'714.5
2017-Jul-07 05:31N 27°54' W 015°15'713.9
2017-Jul-07 05:01N 28°01' W 015°16'612.7
2017-Jul-07 04:30N 28°06' W 015°20'1 2.5
2017-Jul-07 04:00N 28°06' W 015°22'0 0.9
2017-Jul-07 03:30N 28°07' W 015°21'1 1.8
2017-Jul-07 03:00N 28°08' W 015°21'4 7.8
2017-Jul-07 02:30N 28°12' W 015°20'713.8
2017-Jul-07 02:00N 28°18' W 015°18'714.3
2017-Jul-07 01:30N 28°25' W 015°16'714.7
2017-Jul-07 01:00N 28°32' W 015°14'714.6
2017-Jul-07 00:30N 28°39' W 015°12'814.7
2017-Jul-06 23:59N 28°47' W 015°10'  

Dump ship's entire track history